sensor_id;sensor_type;location;lat;lon;timestamp;P1;durP1;ratioP1;P2;durP2;ratioP2
61681;SDS011;47577;43.610;25.010;2023-08-24T00:01:16;1.38;;;1.27;;
61681;SDS011;47577;43.610;25.010;2023-08-24T00:03:45;1.08;;;0.98;;
61681;SDS011;47577;43.610;25.010;2023-08-24T00:06:12;0.85;;;0.85;;
61681;SDS011;47577;43.610;25.010;2023-08-24T00:08:38;1.67;;;1.58;;
61681;SDS011;47577;43.610;25.010;2023-08-24T00:11:03;1.27;;;1.17;;
61681;SDS011;47577;43.610;25.010;2023-08-24T00:13:30;0.68;;;0.68;;
61681;SDS011;47577;43.610;25.010;2023-08-24T00:15:57;0.93;;;0.73;;
61681;SDS011;47577;43.610;25.010;2023-08-24T00:18:23;0.75;;;0.65;;
61681;SDS011;47577;43.610;25.010;2023-08-24T00:20:49;1.00;;;0.88;;
61681;SDS011;47577;43.610;25.010;2023-08-24T00:23:15;2.05;;;1.58;;
61681;SDS011;47577;43.610;25.010;2023-08-24T00:25:41;1.80;;;1.33;;
61681;SDS011;47577;43.610;25.010;2023-08-24T00:28:06;1.60;;;0.70;;
61681;SDS011;47577;43.610;25.010;2023-08-24T00:30:32;1.73;;;1.63;;
61681;SDS011;47577;43.610;25.010;2023-08-24T00:32:58;1.23;;;1.13;;
61681;SDS011;47577;43.610;25.010;2023-08-24T00:35:23;1.65;;;1.40;;
61681;SDS011;47577;43.610;25.010;2023-08-24T00:37:49;1.35;;;0.98;;
61681;SDS011;47577;43.610;25.010;2023-08-24T00:40:16;0.75;;;0.73;;
61681;SDS011;47577;43.610;25.010;2023-08-24T00:42:42;1.30;;;0.90;;
61681;SDS011;47577;43.610;25.010;2023-08-24T00:45:10;0.93;;;0.93;;
61681;SDS011;47577;43.610;25.010;2023-08-24T00:47:42;1.27;;;1.13;;
61681;SDS011;47577;43.610;25.010;2023-08-24T00:50:09;2.92;;;1.23;;
61681;SDS011;47577;43.610;25.010;2023-08-24T00:52:36;0.70;;;0.70;;
61681;SDS011;47577;43.610;25.010;2023-08-24T00:55:04;1.63;;;0.95;;
61681;SDS011;47577;43.610;25.010;2023-08-24T00:57:31;1.50;;;1.38;;
61681;SDS011;47577;43.610;25.010;2023-08-24T00:59:58;1.33;;;1.23;;
61681;SDS011;47577;43.610;25.010;2023-08-24T01:02:27;1.80;;;1.65;;
61681;SDS011;47577;43.610;25.010;2023-08-24T01:04:53;0.73;;;0.65;;
61681;SDS011;47577;43.610;25.010;2023-08-24T01:07:19;0.70;;;0.57;;
61681;SDS011;47577;43.610;25.010;2023-08-24T01:09:45;1.63;;;1.17;;
61681;SDS011;47577;43.610;25.010;2023-08-24T01:17:33;1.77;;;1.15;;
61681;SDS011;47577;43.610;25.010;2023-08-24T01:20:01;1.40;;;1.33;;
61681;SDS011;47577;43.610;25.010;2023-08-24T01:22:36;0.93;;;0.93;;
61681;SDS011;47577;43.610;25.010;2023-08-24T01:25:19;0.73;;;0.73;;
61681;SDS011;47577;43.610;25.010;2023-08-24T01:27:49;2.15;;;1.95;;
61681;SDS011;47577;43.610;25.010;2023-08-24T01:32:43;1.27;;;1.13;;
61681;SDS011;47577;43.610;25.010;2023-08-24T01:35:09;0.85;;;0.47;;
61681;SDS011;47577;43.610;25.010;2023-08-24T01:37:37;0.52;;;0.52;;
61681;SDS011;47577;43.610;25.010;2023-08-24T01:42:43;1.45;;;0.73;;
61681;SDS011;47577;43.610;25.010;2023-08-24T01:45:15;1.05;;;1.05;;
61681;SDS011;47577;43.610;25.010;2023-08-24T01:47:43;1.27;;;1.17;;
61681;SDS011;47577;43.610;25.010;2023-08-24T01:50:12;1.02;;;0.52;;
61681;SDS011;47577;43.610;25.010;2023-08-24T01:52:38;1.27;;;1.17;;
61681;SDS011;47577;43.610;25.010;2023-08-24T01:55:05;1.58;;;1.27;;
61681;SDS011;47577;43.610;25.010;2023-08-24T01:57:31;0.85;;;0.85;;
61681;SDS011;47577;43.610;25.010;2023-08-24T01:59:57;1.15;;;1.13;;
61681;SDS011;47577;43.610;25.010;2023-08-24T02:02:23;0.77;;;0.70;;
61681;SDS011;47577;43.610;25.010;2023-08-24T02:04:50;1.52;;;1.13;;
61681;SDS011;47577;43.610;25.010;2023-08-24T02:07:16;0.60;;;0.60;;
61681;SDS011;47577;43.610;25.010;2023-08-24T02:09:42;2.28;;;1.45;;
61681;SDS011;47577;43.610;25.010;2023-08-24T02:12:07;1.05;;;1.05;;
61681;SDS011;47577;43.610;25.010;2023-08-24T02:14:33;0.82;;;0.77;;
61681;SDS011;47577;43.610;25.010;2023-08-24T02:16:59;1.75;;;1.55;;
61681;SDS011;47577;43.610;25.010;2023-08-24T02:19:24;1.48;;;1.23;;
61681;SDS011;47577;43.610;25.010;2023-08-24T02:21:50;1.10;;;1.00;;
61681;SDS011;47577;43.610;25.010;2023-08-24T02:24:16;0.73;;;0.73;;
61681;SDS011;47577;43.610;25.010;2023-08-24T02:26:41;0.90;;;0.85;;
61681;SDS011;47577;43.610;25.010;2023-08-24T02:29:07;0.73;;;0.65;;
61681;SDS011;47577;43.610;25.010;2023-08-24T02:31:33;1.33;;;0.85;;
61681;SDS011;47577;43.610;25.010;2023-08-24T02:33:58;1.08;;;0.75;;
61681;SDS011;47577;43.610;25.010;2023-08-24T02:36:24;1.05;;;0.95;;
61681;SDS011;47577;43.610;25.010;2023-08-24T02:38:50;1.02;;;0.95;;
61681;SDS011;47577;43.610;25.010;2023-08-24T02:41:15;1.23;;;1.13;;
61681;SDS011;47577;43.610;25.010;2023-08-24T02:43:41;1.13;;;0.82;;
61681;SDS011;47577;43.610;25.010;2023-08-24T02:46:07;1.52;;;1.23;;
61681;SDS011;47577;43.610;25.010;2023-08-24T02:48:34;1.13;;;0.90;;
61681;SDS011;47577;43.610;25.010;2023-08-24T02:51:00;1.17;;;1.05;;
61681;SDS011;47577;43.610;25.010;2023-08-24T02:53:28;0.88;;;0.88;;
61681;SDS011;47577;43.610;25.010;2023-08-24T02:55:54;2.50;;;1.60;;
61681;SDS011;47577;43.610;25.010;2023-08-24T02:58:21;0.60;;;0.60;;
61681;SDS011;47577;43.610;25.010;2023-08-24T03:00:47;1.33;;;0.93;;
61681;SDS011;47577;43.610;25.010;2023-08-24T03:03:15;1.02;;;0.60;;
61681;SDS011;47577;43.610;25.010;2023-08-24T03:05:52;1.35;;;0.95;;
61681;SDS011;47577;43.610;25.010;2023-08-24T03:08:19;1.80;;;1.40;;
61681;SDS011;47577;43.610;25.010;2023-08-24T03:10:44;0.52;;;0.52;;
61681;SDS011;47577;43.610;25.010;2023-08-24T03:13:11;0.93;;;0.93;;
61681;SDS011;47577;43.610;25.010;2023-08-24T03:15:36;0.60;;;0.55;;
61681;SDS011;47577;43.610;25.010;2023-08-24T03:18:02;0.88;;;0.75;;
61681;SDS011;47577;43.610;25.010;2023-08-24T03:20:28;0.43;;;0.40;;
61681;SDS011;47577;43.610;25.010;2023-08-24T03:22:54;1.38;;;1.10;;
61681;SDS011;47577;43.610;25.010;2023-08-24T03:25:20;0.65;;;0.65;;
61681;SDS011;47577;43.610;25.010;2023-08-24T03:27:46;1.77;;;1.40;;
61681;SDS011;47577;43.610;25.010;2023-08-24T03:30:12;2.00;;;0.95;;
61681;SDS011;47577;43.610;25.010;2023-08-24T03:32:39;0.47;;;0.47;;
61681;SDS011;47577;43.610;25.010;2023-08-24T03:35:05;0.95;;;0.90;;
61681;SDS011;47577;43.610;25.010;2023-08-24T03:37:32;0.63;;;0.57;;
61681;SDS011;47577;43.610;25.010;2023-08-24T03:39:57;1.45;;;1.35;;
61681;SDS011;47577;43.610;25.010;2023-08-24T03:42:23;1.73;;;1.27;;
61681;SDS011;47577;43.610;25.010;2023-08-24T03:44:49;3.08;;;1.08;;
61681;SDS011;47577;43.610;25.010;2023-08-24T03:47:15;1.33;;;1.13;;
61681;SDS011;47577;43.610;25.010;2023-08-24T03:49:43;0.57;;;0.57;;
61681;SDS011;47577;43.610;25.010;2023-08-24T03:52:09;1.55;;;1.45;;
61681;SDS011;47577;43.610;25.010;2023-08-24T03:54:35;0.85;;;0.85;;
61681;SDS011;47577;43.610;25.010;2023-08-24T03:57:01;3.10;;;1.38;;
61681;SDS011;47577;43.610;25.010;2023-08-24T03:59:27;1.27;;;0.90;;
61681;SDS011;47577;43.610;25.010;2023-08-24T04:01:53;1.08;;;0.82;;
61681;SDS011;47577;43.610;25.010;2023-08-24T04:04:18;1.35;;;1.17;;
61681;SDS011;47577;43.610;25.010;2023-08-24T04:06:44;0.73;;;0.73;;
61681;SDS011;47577;43.610;25.010;2023-08-24T04:09:09;1.40;;;1.33;;
61681;SDS011;47577;43.610;25.010;2023-08-24T04:11:35;0.73;;;0.68;;
61681;SDS011;47577;43.610;25.010;2023-08-24T04:14:01;1.10;;;0.98;;
61681;SDS011;47577;43.610;25.010;2023-08-24T04:16:27;0.80;;;0.80;;
61681;SDS011;47577;43.610;25.010;2023-08-24T04:18:52;1.30;;;1.20;;
61681;SDS011;47577;43.610;25.010;2023-08-24T04:21:18;1.10;;;1.00;;
61681;SDS011;47577;43.610;25.010;2023-08-24T04:23:43;1.35;;;1.25;;
61681;SDS011;47577;43.610;25.010;2023-08-24T04:26:10;1.45;;;1.15;;
61681;SDS011;47577;43.610;25.010;2023-08-24T04:28:37;1.25;;;1.15;;
61681;SDS011;47577;43.610;25.010;2023-08-24T04:31:02;1.30;;;0.90;;
61681;SDS011;47577;43.610;25.010;2023-08-24T04:33:28;1.00;;;1.00;;
61681;SDS011;47577;43.610;25.010;2023-08-24T04:35:54;0.80;;;0.80;;
61681;SDS011;47577;43.610;25.010;2023-08-24T04:38:20;3.42;;;1.35;;
61681;SDS011;47577;43.610;25.010;2023-08-24T04:40:46;0.93;;;0.93;;
61681;SDS011;47577;43.610;25.010;2023-08-24T04:43:13;3.33;;;1.20;;
61681;SDS011;47577;43.610;25.010;2023-08-24T04:45:39;2.47;;;1.10;;
61681;SDS011;47577;43.610;25.010;2023-08-24T04:48:05;1.10;;;1.10;;
61681;SDS011;47577;43.610;25.010;2023-08-24T04:50:30;1.20;;;1.10;;
61681;SDS011;47577;43.610;25.010;2023-08-24T04:52:56;1.80;;;1.40;;
61681;SDS011;47577;43.610;25.010;2023-08-24T04:55:22;1.58;;;1.35;;
61681;SDS011;47577;43.610;25.010;2023-08-24T04:57:48;3.67;;;1.60;;
61681;SDS011;47577;43.610;25.010;2023-08-24T05:00:14;0.85;;;0.85;;
61681;SDS011;47577;43.610;25.010;2023-08-24T05:02:44;1.38;;;1.15;;
61681;SDS011;47577;43.610;25.010;2023-08-24T05:05:10;0.88;;;0.82;;
61681;SDS011;47577;43.610;25.010;2023-08-24T05:07:37;0.95;;;0.75;;
61681;SDS011;47577;43.610;25.010;2023-08-24T05:10:03;1.77;;;1.30;;
61681;SDS011;47577;43.610;25.010;2023-08-24T05:12:29;3.13;;;0.67;;
61681;SDS011;47577;43.610;25.010;2023-08-24T05:14:55;1.52;;;1.35;;
61681;SDS011;47577;43.610;25.010;2023-08-24T05:17:21;1.55;;;1.25;;
61681;SDS011;47577;43.610;25.010;2023-08-24T05:19:56;2.53;;;1.70;;
61681;SDS011;47577;43.610;25.010;2023-08-24T05:22:21;2.60;;;1.85;;
61681;SDS011;47577;43.610;25.010;2023-08-24T05:24:48;4.25;;;1.17;;
61681;SDS011;47577;43.610;25.010;2023-08-24T05:27:14;1.40;;;1.30;;
61681;SDS011;47577;43.610;25.010;2023-08-24T05:29:40;1.25;;;1.15;;
61681;SDS011;47577;43.610;25.010;2023-08-24T05:32:06;1.35;;;1.23;;
61681;SDS011;47577;43.610;25.010;2023-08-24T05:34:32;2.22;;;1.92;;
61681;SDS011;47577;43.610;25.010;2023-08-24T05:36:58;3.20;;;2.90;;
61681;SDS011;47577;43.610;25.010;2023-08-24T05:39:24;1.27;;;1.20;;
61681;SDS011;47577;43.610;25.010;2023-08-24T05:41:53;2.17;;;1.45;;
61681;SDS011;47577;43.610;25.010;2023-08-24T05:44:19;2.03;;;1.75;;
61681;SDS011;47577;43.610;25.010;2023-08-24T05:46:46;1.42;;;1.33;;
61681;SDS011;47577;43.610;25.010;2023-08-24T05:49:12;2.58;;;2.22;;
61681;SDS011;47577;43.610;25.010;2023-08-24T05:51:38;4.55;;;2.03;;
61681;SDS011;47577;43.610;25.010;2023-08-24T05:54:03;2.15;;;1.27;;
61681;SDS011;47577;43.610;25.010;2023-08-24T05:56:29;1.63;;;1.43;;
61681;SDS011;47577;43.610;25.010;2023-08-24T05:58:57;1.33;;;1.23;;
61681;SDS011;47577;43.610;25.010;2023-08-24T06:01:23;1.63;;;1.52;;
61681;SDS011;47577;43.610;25.010;2023-08-24T06:03:50;1.65;;;1.55;;
61681;SDS011;47577;43.610;25.010;2023-08-24T06:06:16;1.47;;;1.37;;
61681;SDS011;47577;43.610;25.010;2023-08-24T06:08:42;1.40;;;1.30;;
61681;SDS011;47577;43.610;25.010;2023-08-24T06:11:07;3.53;;;2.30;;
61681;SDS011;47577;43.610;25.010;2023-08-24T06:13:33;1.70;;;1.47;;
61681;SDS011;47577;43.610;25.010;2023-08-24T06:15:59;2.07;;;1.50;;
61681;SDS011;47577;43.610;25.010;2023-08-24T06:18:25;3.53;;;1.60;;
61681;SDS011;47577;43.610;25.010;2023-08-24T06:20:50;1.40;;;1.30;;
61681;SDS011;47577;43.610;25.010;2023-08-24T06:23:17;3.20;;;2.90;;
61681;SDS011;47577;43.610;25.010;2023-08-24T06:25:43;2.25;;;2.03;;
61681;SDS011;47577;43.610;25.010;2023-08-24T06:28:10;2.17;;;1.55;;
61681;SDS011;47577;43.610;25.010;2023-08-24T06:30:39;2.20;;;1.70;;
61681;SDS011;47577;43.610;25.010;2023-08-24T06:33:08;1.95;;;1.40;;
61681;SDS011;47577;43.610;25.010;2023-08-24T06:35:36;2.38;;;1.50;;
61681;SDS011;47577;43.610;25.010;2023-08-24T06:38:02;1.65;;;1.55;;
61681;SDS011;47577;43.610;25.010;2023-08-24T06:40:29;4.82;;;2.15;;
61681;SDS011;47577;43.610;25.010;2023-08-24T06:42:55;2.55;;;2.35;;
61681;SDS011;47577;43.610;25.010;2023-08-24T06:45:21;2.38;;;2.05;;
61681;SDS011;47577;43.610;25.010;2023-08-24T06:47:47;1.70;;;1.60;;
61681;SDS011;47577;43.610;25.010;2023-08-24T06:50:14;2.00;;;1.90;;
61681;SDS011;47577;43.610;25.010;2023-08-24T06:52:40;1.60;;;1.50;;
61681;SDS011;47577;43.610;25.010;2023-08-24T06:55:10;3.33;;;2.13;;
61681;SDS011;47577;43.610;25.010;2023-08-24T06:57:35;6.72;;;2.72;;
61681;SDS011;47577;43.610;25.010;2023-08-24T07:00:03;3.92;;;2.40;;
61681;SDS011;47577;43.610;25.010;2023-08-24T07:02:32;2.78;;;1.70;;
61681;SDS011;47577;43.610;25.010;2023-08-24T07:04:58;3.20;;;2.83;;
61681;SDS011;47577;43.610;25.010;2023-08-24T07:07:26;3.30;;;2.40;;
61681;SDS011;47577;43.610;25.010;2023-08-24T07:09:51;12.27;;;2.40;;
61681;SDS011;47577;43.610;25.010;2023-08-24T07:12:17;2.90;;;2.03;;
61681;SDS011;47577;43.610;25.010;2023-08-24T07:14:43;1.65;;;1.55;;
61681;SDS011;47577;43.610;25.010;2023-08-24T07:17:09;2.67;;;2.00;;
61681;SDS011;47577;43.610;25.010;2023-08-24T07:19:35;2.00;;;1.85;;
61681;SDS011;47577;43.610;25.010;2023-08-24T07:22:00;2.47;;;2.27;;
61681;SDS011;47577;43.610;25.010;2023-08-24T07:24:26;2.63;;;2.43;;
61681;SDS011;47577;43.610;25.010;2023-08-24T07:26:53;4.47;;;1.92;;
61681;SDS011;47577;43.610;25.010;2023-08-24T07:29:22;2.20;;;2.00;;
61681;SDS011;47577;43.610;25.010;2023-08-24T07:31:48;2.90;;;1.70;;
61681;SDS011;47577;43.610;25.010;2023-08-24T07:34:14;3.03;;;2.73;;
61681;SDS011;47577;43.610;25.010;2023-08-24T07:36:40;1.67;;;1.58;;
61681;SDS011;47577;43.610;25.010;2023-08-24T07:39:07;4.28;;;1.83;;
61681;SDS011;47577;43.610;25.010;2023-08-24T07:41:33;1.53;;;1.43;;
61681;SDS011;47577;43.610;25.010;2023-08-24T07:43:59;2.93;;;2.57;;
61681;SDS011;47577;43.610;25.010;2023-08-24T07:46:24;2.37;;;2.17;;
61681;SDS011;47577;43.610;25.010;2023-08-24T07:48:50;4.87;;;2.73;;
61681;SDS011;47577;43.610;25.010;2023-08-24T07:51:16;2.20;;;2.00;;
61681;SDS011;47577;43.610;25.010;2023-08-24T07:53:41;1.37;;;1.27;;
61681;SDS011;47577;43.610;25.010;2023-08-24T07:56:07;2.00;;;1.80;;
61681;SDS011;47577;43.610;25.010;2023-08-24T07:58:32;2.07;;;1.87;;
61681;SDS011;47577;43.610;25.010;2023-08-24T08:00:59;2.53;;;2.33;;
61681;SDS011;47577;43.610;25.010;2023-08-24T08:03:25;1.95;;;1.60;;
61681;SDS011;47577;43.610;25.010;2023-08-24T08:05:51;2.27;;;1.87;;
61681;SDS011;47577;43.610;25.010;2023-08-24T08:08:17;2.60;;;2.40;;
61681;SDS011;47577;43.610;25.010;2023-08-24T08:10:42;2.97;;;2.40;;
61681;SDS011;47577;43.610;25.010;2023-08-24T08:13:08;4.40;;;2.25;;
61681;SDS011;47577;43.610;25.010;2023-08-24T08:15:36;7.15;;;2.58;;
61681;SDS011;47577;43.610;25.010;2023-08-24T08:18:03;2.65;;;2.08;;
61681;SDS011;47577;43.610;25.010;2023-08-24T08:20:30;3.72;;;2.58;;
61681;SDS011;47577;43.610;25.010;2023-08-24T08:22:56;2.00;;;1.83;;
61681;SDS011;47577;43.610;25.010;2023-08-24T08:25:22;4.70;;;1.97;;
61681;SDS011;47577;43.610;25.010;2023-08-24T08:27:48;2.73;;;1.77;;
61681;SDS011;47577;43.610;25.010;2023-08-24T08:30:14;2.97;;;2.22;;
61681;SDS011;47577;43.610;25.010;2023-08-24T08:35:06;1.70;;;1.50;;
61681;SDS011;47577;43.610;25.010;2023-08-24T08:37:33;3.45;;;2.17;;
61681;SDS011;47577;43.610;25.010;2023-08-24T08:39:59;3.33;;;1.73;;
61681;SDS011;47577;43.610;25.010;2023-08-24T08:42:25;3.50;;;2.13;;
61681;SDS011;47577;43.610;25.010;2023-08-24T08:44:50;3.30;;;2.72;;
61681;SDS011;47577;43.610;25.010;2023-08-24T08:47:19;2.58;;;2.30;;
61681;SDS011;47577;43.610;25.010;2023-08-24T08:49:47;2.58;;;2.38;;
61681;SDS011;47577;43.610;25.010;2023-08-24T08:52:14;2.45;;;2.05;;
61681;SDS011;47577;43.610;25.010;2023-08-24T08:54:39;2.92;;;2.30;;
61681;SDS011;47577;43.610;25.010;2023-08-24T08:57:08;2.25;;;1.85;;
61681;SDS011;47577;43.610;25.010;2023-08-24T08:59:35;2.10;;;1.90;;
61681;SDS011;47577;43.610;25.010;2023-08-24T09:02:02;6.28;;;2.13;;
61681;SDS011;47577;43.610;25.010;2023-08-24T09:04:31;2.65;;;1.98;;
61681;SDS011;47577;43.610;25.010;2023-08-24T09:07:01;2.63;;;2.42;;
61681;SDS011;47577;43.610;25.010;2023-08-24T09:09:32;2.10;;;1.90;;
61681;SDS011;47577;43.610;25.010;2023-08-24T09:11:58;2.38;;;2.03;;
61681;SDS011;47577;43.610;25.010;2023-08-24T09:14:24;3.03;;;2.23;;
61681;SDS011;47577;43.610;25.010;2023-08-24T09:16:50;2.20;;;2.00;;
61681;SDS011;47577;43.610;25.010;2023-08-24T09:19:15;4.30;;;2.63;;
61681;SDS011;47577;43.610;25.010;2023-08-24T09:21:41;2.10;;;1.87;;
61681;SDS011;47577;43.610;25.010;2023-08-24T09:24:07;2.88;;;2.00;;
61681;SDS011;47577;43.610;25.010;2023-08-24T09:26:34;2.13;;;1.95;;
61681;SDS011;47577;43.610;25.010;2023-08-24T09:29:12;4.60;;;1.85;;
61681;SDS011;47577;43.610;25.010;2023-08-24T09:31:39;3.28;;;2.58;;
61681;SDS011;47577;43.610;25.010;2023-08-24T09:34:06;2.95;;;1.73;;
61681;SDS011;47577;43.610;25.010;2023-08-24T09:36:32;2.72;;;2.38;;
61681;SDS011;47577;43.610;25.010;2023-08-24T09:38:59;3.17;;;1.85;;
61681;SDS011;47577;43.610;25.010;2023-08-24T09:41:38;1.53;;;1.43;;
61681;SDS011;47577;43.610;25.010;2023-08-24T09:44:07;4.72;;;2.40;;
61681;SDS011;47577;43.610;25.010;2023-08-24T09:49:06;2.42;;;1.85;;
61681;SDS011;47577;43.610;25.010;2023-08-24T09:51:34;16.90;;;1.90;;
61681;SDS011;47577;43.610;25.010;2023-08-24T09:54:04;2.08;;;1.65;;
61681;SDS011;47577;43.610;25.010;2023-08-24T09:56:34;2.55;;;1.75;;
61681;SDS011;47577;43.610;25.010;2023-08-24T09:59:06;3.58;;;2.47;;
61681;SDS011;47577;43.610;25.010;2023-08-24T10:01:38;2.08;;;1.88;;
61681;SDS011;47577;43.610;25.010;2023-08-24T10:04:07;2.05;;;1.85;;
61681;SDS011;47577;43.610;25.010;2023-08-24T10:06:34;2.58;;;1.70;;
61681;SDS011;47577;43.610;25.010;2023-08-24T10:09:02;2.63;;;1.73;;
61681;SDS011;47577;43.610;25.010;2023-08-24T10:11:33;3.05;;;1.95;;
61681;SDS011;47577;43.610;25.010;2023-08-24T10:16:36;2.53;;;2.00;;
61681;SDS011;47577;43.610;25.010;2023-08-24T10:19:03;2.22;;;1.88;;
61681;SDS011;47577;43.610;25.010;2023-08-24T10:21:29;2.97;;;2.45;;
61681;SDS011;47577;43.610;25.010;2023-08-24T10:26:23;2.22;;;2.00;;
61681;SDS011;47577;43.610;25.010;2023-08-24T10:28:52;6.25;;;2.05;;
61681;SDS011;47577;43.610;25.010;2023-08-24T10:31:18;2.70;;;2.28;;
61681;SDS011;47577;43.610;25.010;2023-08-24T10:33:45;2.78;;;2.53;;
61681;SDS011;47577;43.610;25.010;2023-08-24T10:36:12;3.33;;;2.47;;
61681;SDS011;47577;43.610;25.010;2023-08-24T10:38:42;2.75;;;1.90;;
61681;SDS011;47577;43.610;25.010;2023-08-24T10:41:08;3.08;;;2.25;;
61681;SDS011;47577;43.610;25.010;2023-08-24T10:43:38;3.72;;;3.13;;
61681;SDS011;47577;43.610;25.010;2023-08-24T10:46:04;2.85;;;2.38;;
61681;SDS011;47577;43.610;25.010;2023-08-24T10:53:47;3.80;;;2.60;;
61681;SDS011;47577;43.610;25.010;2023-08-24T10:56:16;1.92;;;1.67;;
61681;SDS011;47577;43.610;25.010;2023-08-24T10:58:43;2.30;;;2.10;;
61681;SDS011;47577;43.610;25.010;2023-08-24T11:03:48;2.00;;;1.80;;
61681;SDS011;47577;43.610;25.010;2023-08-24T11:06:22;2.15;;;1.95;;
61681;SDS011;47577;43.610;25.010;2023-08-24T11:09:04;2.45;;;1.98;;
61681;SDS011;47577;43.610;25.010;2023-08-24T11:11:32;2.58;;;1.92;;
61681;SDS011;47577;43.610;25.010;2023-08-24T11:16:47;2.47;;;2.28;;
61681;SDS011;47577;43.610;25.010;2023-08-24T11:19:14;3.42;;;2.40;;
61681;SDS011;47577;43.610;25.010;2023-08-24T11:21:41;2.83;;;2.15;;
61681;SDS011;47577;43.610;25.010;2023-08-24T11:24:12;4.30;;;2.80;;
61681;SDS011;47577;43.610;25.010;2023-08-24T11:26:43;1.63;;;1.52;;
61681;SDS011;47577;43.610;25.010;2023-08-24T11:29:09;1.90;;;1.80;;
61681;SDS011;47577;43.610;25.010;2023-08-24T11:31:36;3.33;;;1.85;;
61681;SDS011;47577;43.610;25.010;2023-08-24T11:34:02;2.63;;;2.42;;
61681;SDS011;47577;43.610;25.010;2023-08-24T11:36:30;1.98;;;1.83;;
61681;SDS011;47577;43.610;25.010;2023-08-24T11:38:57;1.88;;;1.73;;
61681;SDS011;47577;43.610;25.010;2023-08-24T11:41:24;2.22;;;1.88;;
61681;SDS011;47577;43.610;25.010;2023-08-24T11:43:58;2.55;;;2.13;;
61681;SDS011;47577;43.610;25.010;2023-08-24T11:46:24;2.70;;;2.45;;
61681;SDS011;47577;43.610;25.010;2023-08-24T11:51:16;2.78;;;2.22;;
61681;SDS011;47577;43.610;25.010;2023-08-24T11:53:42;2.95;;;2.25;;
61681;SDS011;47577;43.610;25.010;2023-08-24T11:56:10;2.50;;;1.95;;
61681;SDS011;47577;43.610;25.010;2023-08-24T11:58:40;2.53;;;1.95;;
61681;SDS011;47577;43.610;25.010;2023-08-24T12:01:06;2.22;;;1.88;;
61681;SDS011;47577;43.610;25.010;2023-08-24T12:03:33;2.38;;;2.05;;
61681;SDS011;47577;43.610;25.010;2023-08-24T12:06:01;1.90;;;1.73;;
61681;SDS011;47577;43.610;25.010;2023-08-24T12:08:28;2.28;;;2.08;;
61681;SDS011;47577;43.610;25.010;2023-08-24T12:10:54;2.30;;;2.10;;
61681;SDS011;47577;43.610;25.010;2023-08-24T12:13:20;1.38;;;1.27;;
61681;SDS011;47577;43.610;25.010;2023-08-24T12:15:47;2.67;;;1.95;;
61681;SDS011;47577;43.610;25.010;2023-08-24T12:18:15;1.75;;;1.65;;
61681;SDS011;47577;43.610;25.010;2023-08-24T12:20:41;3.30;;;1.77;;
61681;SDS011;47577;43.610;25.010;2023-08-24T12:23:07;2.45;;;1.98;;
61681;SDS011;47577;43.610;25.010;2023-08-24T12:25:37;1.80;;;1.70;;
61681;SDS011;47577;43.610;25.010;2023-08-24T12:28:12;2.45;;;2.22;;
61681;SDS011;47577;43.610;25.010;2023-08-24T12:30:46;3.10;;;2.00;;
61681;SDS011;47577;43.610;25.010;2023-08-24T12:33:26;3.72;;;1.88;;
61681;SDS011;47577;43.610;25.010;2023-08-24T12:35:56;1.88;;;1.60;;
61681;SDS011;47577;43.610;25.010;2023-08-24T12:38:26;1.83;;;1.73;;
61681;SDS011;47577;43.610;25.010;2023-08-24T12:40:52;2.10;;;1.55;;
61681;SDS011;47577;43.610;25.010;2023-08-24T12:43:18;2.40;;;2.20;;
61681;SDS011;47577;43.610;25.010;2023-08-24T12:45:44;1.60;;;1.50;;
61681;SDS011;47577;43.610;25.010;2023-08-24T12:48:10;2.22;;;1.50;;
61681;SDS011;47577;43.610;25.010;2023-08-24T12:50:37;3.67;;;2.40;;
61681;SDS011;47577;43.610;25.010;2023-08-24T12:53:04;2.33;;;1.90;;
61681;SDS011;47577;43.610;25.010;2023-08-24T12:55:35;2.67;;;1.80;;
61681;SDS011;47577;43.610;25.010;2023-08-24T12:58:05;2.38;;;2.15;;
61681;SDS011;47577;43.610;25.010;2023-08-24T13:00:31;5.88;;;2.40;;
61681;SDS011;47577;43.610;25.010;2023-08-24T13:02:58;3.78;;;2.22;;
61681;SDS011;47577;43.610;25.010;2023-08-24T13:05:24;2.88;;;2.13;;
61681;SDS011;47577;43.610;25.010;2023-08-24T13:07:49;2.50;;;1.77;;
61681;SDS011;47577;43.610;25.010;2023-08-24T13:10:16;2.33;;;2.05;;
61681;SDS011;47577;43.610;25.010;2023-08-24T13:12:42;3.03;;;1.98;;
61681;SDS011;47577;43.610;25.010;2023-08-24T13:15:08;2.80;;;2.10;;
61681;SDS011;47577;43.610;25.010;2023-08-24T13:17:36;2.85;;;2.10;;
61681;SDS011;47577;43.610;25.010;2023-08-24T13:20:01;2.75;;;1.92;;
61681;SDS011;47577;43.610;25.010;2023-08-24T13:22:28;2.22;;;1.98;;
61681;SDS011;47577;43.610;25.010;2023-08-24T13:24:54;4.38;;;2.42;;
61681;SDS011;47577;43.610;25.010;2023-08-24T13:27:19;2.20;;;2.00;;
61681;SDS011;47577;43.610;25.010;2023-08-24T13:29:45;3.20;;;2.78;;
61681;SDS011;47577;43.610;25.010;2023-08-24T13:32:12;3.38;;;2.42;;
61681;SDS011;47577;43.610;25.010;2023-08-24T13:34:37;2.63;;;2.13;;
61681;SDS011;47577;43.610;25.010;2023-08-24T13:37:03;2.95;;;2.63;;
61681;SDS011;47577;43.610;25.010;2023-08-24T13:41:57;1.98;;;1.55;;
61681;SDS011;47577;43.610;25.010;2023-08-24T13:44:26;2.47;;;2.28;;
61681;SDS011;47577;43.610;25.010;2023-08-24T13:46:52;2.63;;;2.05;;
61681;SDS011;47577;43.610;25.010;2023-08-24T13:49:20;2.20;;;2.00;;
61681;SDS011;47577;43.610;25.010;2023-08-24T13:51:46;2.80;;;2.15;;
61681;SDS011;47577;43.610;25.010;2023-08-24T13:54:15;2.22;;;2.03;;
61681;SDS011;47577;43.610;25.010;2023-08-24T13:56:46;1.98;;;1.77;;
61681;SDS011;47577;43.610;25.010;2023-08-24T13:59:13;3.58;;;2.30;;
61681;SDS011;47577;43.610;25.010;2023-08-24T14:01:40;3.50;;;2.15;;
61681;SDS011;47577;43.610;25.010;2023-08-24T14:04:06;4.20;;;2.20;;
61681;SDS011;47577;43.610;25.010;2023-08-24T14:09:04;4.35;;;2.50;;
61681;SDS011;47577;43.610;25.010;2023-08-24T14:11:30;7.40;;;3.35;;
61681;SDS011;47577;43.610;25.010;2023-08-24T14:16:22;4.10;;;2.88;;
61681;SDS011;47577;43.610;25.010;2023-08-24T14:18:48;3.05;;;2.33;;
61681;SDS011;47577;43.610;25.010;2023-08-24T14:23:40;2.15;;;1.95;;
61681;SDS011;47577;43.610;25.010;2023-08-24T14:28:47;2.47;;;2.00;;
61681;SDS011;47577;43.610;25.010;2023-08-24T14:31:15;2.42;;;1.75;;
61681;SDS011;47577;43.610;25.010;2023-08-24T14:33:41;2.33;;;2.13;;
61681;SDS011;47577;43.610;25.010;2023-08-24T14:38:32;3.45;;;1.90;;
61681;SDS011;47577;43.610;25.010;2023-08-24T14:40:58;2.03;;;1.83;;
61681;SDS011;47577;43.610;25.010;2023-08-24T14:43:26;2.20;;;1.80;;
61681;SDS011;47577;43.610;25.010;2023-08-24T14:45:53;1.75;;;1.63;;
61681;SDS011;47577;43.610;25.010;2023-08-24T14:48:19;3.20;;;2.22;;
61681;SDS011;47577;43.610;25.010;2023-08-24T14:53:11;2.88;;;2.30;;
61681;SDS011;47577;43.610;25.010;2023-08-24T14:55:40;2.95;;;2.30;;
61681;SDS011;47577;43.610;25.010;2023-08-24T14:58:06;2.65;;;2.42;;
61681;SDS011;47577;43.610;25.010;2023-08-24T15:02:58;1.98;;;1.77;;
61681;SDS011;47577;43.610;25.010;2023-08-24T15:05:24;3.00;;;2.20;;
61681;SDS011;47577;43.610;25.010;2023-08-24T15:07:49;3.05;;;1.92;;
61681;SDS011;47577;43.610;25.010;2023-08-24T15:10:16;1.92;;;1.20;;
61681;SDS011;47577;43.610;25.010;2023-08-24T15:12:42;1.85;;;1.40;;
61681;SDS011;47577;43.610;25.010;2023-08-24T15:15:09;1.52;;;1.42;;
61681;SDS011;47577;43.610;25.010;2023-08-24T15:17:35;1.42;;;1.33;;
61681;SDS011;47577;43.610;25.010;2023-08-24T15:20:04;2.08;;;1.77;;
61681;SDS011;47577;43.610;25.010;2023-08-24T15:27:25;2.42;;;1.75;;
61681;SDS011;47577;43.610;25.010;2023-08-24T15:29:50;2.00;;;1.50;;